Terminal Aerodrome Forecast
Issued by NWS Twin Cities, MN

Home | Current Version | Previous Version | Graphics & Text | Print | Product List | Glossary On
Versions: 1 2 3 4 5 6 7 8 9 10 11 12 13 14 15 16 17 18 19 20 21 22 23 24 25 26 27 28
000
FTUS43 KMPX 220800 AAA
TAFMSP
TAF AMD
KMSP 220848Z 2209/2312 31006KT P6SM SKC
     FM221500 34010KT P6SM FEW250
     FM222000 02007KT P6SM SCT250
     FM230000 07005KT P6SM BKN250
     FM230600 13008KT P6SM BKN250=

USA.gov is the U.S. government's official web portal to all federal, state and local government web resources and services.